createdAt,value
2023-05-01T00:00:32.297Z,94754.00
2023-05-01T00:01:32.354Z,94754.00
2023-05-01T00:02:32.373Z,94751.00
2023-05-01T00:03:33.405Z,94751.00
2023-05-01T00:04:32.308Z,94751.00
2023-05-01T00:05:32.307Z,94754.00
2023-05-01T00:06:32.309Z,94751.00
2023-05-01T00:07:32.290Z,94754.00
2023-05-01T00:08:32.238Z,94752.00
2023-05-01T00:09:32.314Z,94752.00
2023-05-01T00:10:32.256Z,94751.00
2023-05-01T00:11:32.227Z,94749.00
2023-05-01T00:12:32.264Z,94749.00
2023-05-01T00:13:33.218Z,94747.00
2023-05-01T00:14:32.238Z,94747.00
2023-05-01T00:15:32.242Z,94747.00
2023-05-01T00:16:32.295Z,94747.00
2023-05-01T00:17:32.273Z,94747.00
2023-05-01T00:18:32.198Z,94747.00
2023-05-01T00:19:32.207Z,94749.00
2023-05-01T00:20:32.231Z,94745.00
2023-05-01T00:21:32.196Z,94749.00
2023-05-01T00:22:32.231Z,94749.00
2023-05-01T00:23:32.149Z,94751.00
2023-05-01T00:24:32.160Z,94751.00
2023-05-01T00:25:32.168Z,94751.00
2023-05-01T00:26:32.184Z,94751.00
2023-05-01T00:27:32.132Z,94745.00
2023-05-01T00:28:32.174Z,94747.00
2023-05-01T00:29:32.138Z,94743.00
2023-05-01T00:30:32.145Z,94743.00
2023-05-01T00:31:32.180Z,94741.00
2023-05-01T00:32:32.161Z,94741.00
2023-05-01T00:33:32.120Z,94741.00
2023-05-01T00:34:32.133Z,94739.00
2023-05-01T00:35:32.131Z,94735.00
2023-05-01T00:36:32.083Z,94735.00
2023-05-01T00:37:32.087Z,94737.00
2023-05-01T00:38:32.115Z,94741.00
2023-05-01T00:39:32.115Z,94743.00
2023-05-01T00:40:32.136Z,94743.00
2023-05-01T00:41:32.153Z,94741.00
2023-05-01T00:42:32.183Z,94739.00
2023-05-01T00:43:32.146Z,94739.00
2023-05-01T00:44:32.257Z,94739.00
2023-05-01T00:45:32.281Z,94737.00
2023-05-01T00:46:32.495Z,94735.00
2023-05-01T00:47:32.390Z,94733.00
2023-05-01T00:48:32.304Z,94733.00
2023-05-01T00:49:32.319Z,94731.00
2023-05-01T00:50:32.381Z,94731.00
2023-05-01T00:51:32.372Z,94733.00
2023-05-01T00:52:32.437Z,94733.00
2023-05-01T00:53:32.404Z,94733.00
2023-05-01T00:54:32.449Z,94733.00
2023-05-01T00:55:32.493Z,94729.00
2023-05-01T00:56:32.568Z,94727.00
2023-05-01T00:57:32.529Z,94729.00
2023-05-01T00:58:32.555Z,94729.00
2023-05-01T00:59:32.594Z,94729.00
2023-05-01T01:00:32.609Z,94729.00
2023-05-01T01:01:32.654Z,94727.00
2023-05-01T01:02:32.749Z,94725.00
2023-05-01T01:03:32.666Z,94721.00
2023-05-01T01:04:32.776Z,94719.00
2023-05-01T01:05:32.747Z,94717.00
2023-05-01T01:06:32.883Z,94721.00
2023-05-01T01:07:32.817Z,94719.00
2023-05-01T01:08:32.955Z,94725.00
2023-05-01T01:09:32.890Z,94723.00
2023-05-01T01:10:32.892Z,94723.00
2023-05-01T01:11:32.946Z,94721.00
2023-05-01T01:12:32.998Z,94721.00
2023-05-01T01:13:33.012Z,94721.00
2023-05-01T01:14:33.002Z,94717.00
2023-05-01T01:15:33.055Z,94717.00
2023-05-01T01:16:33.096Z,94717.00
2023-05-01T01:17:33.148Z,94717.00
2023-05-01T01:18:33.156Z,94719.00
2023-05-01T01:19:33.135Z,94717.00
2023-05-01T01:20:33.153Z,94719.00
2023-05-01T01:21:33.217Z,94719.00
2023-05-01T01:22:33.258Z,94719.00
2023-05-01T01:23:33.217Z,94721.00
2023-05-01T01:24:33.182Z,94719.00
2023-05-01T01:25:33.250Z,94717.00
2023-05-01T01:26:33.278Z,94719.00
2023-05-01T01:27:33.281Z,94719.00
2023-05-01T01:28:33.288Z,94719.00
2023-05-01T01:29:33.338Z,94717.00
2023-05-01T01:30:33.376Z,94717.00
2023-05-01T01:31:33.441Z,94717.00
2023-05-01T01:32:33.456Z,94717.00
2023-05-01T01:33:33.428Z,94715.00
2023-05-01T01:34:33.499Z,94717.00
2023-05-01T01:35:33.465Z,94713.00
2023-05-01T01:36:33.520Z,94715.00
2023-05-01T01:37:33.581Z,94713.00
2023-05-01T01:38:33.642Z,94711.00
2023-05-01T01:39:33.660Z,94711.00
2023-05-01T01:40:33.708Z,94711.00
2023-05-01T01:41:33.697Z,94707.00
2023-05-01T01:42:33.761Z,94707.00
2023-05-01T01:43:33.781Z,94707.00
2023-05-01T01:44:33.814Z,94705.00
2023-05-01T01:45:33.814Z,94707.00
2023-05-01T01:46:33.878Z,94707.00
2023-05-01T01:47:33.920Z,94709.00
2023-05-01T01:48:33.861Z,94707.00
2023-05-01T01:49:33.915Z,94707.00
2023-05-01T01:50:34.030Z,94704.00
2023-05-01T01:51:33.983Z,94705.00
2023-05-01T01:52:34.044Z,94704.00
2023-05-01T01:53:34.056Z,94704.00
2023-05-01T01:54:34.051Z,94704.00
2023-05-01T01:55:34.088Z,94705.00
2023-05-01T01:56:34.098Z,94704.00
2023-05-01T01:57:34.101Z,94702.00
2023-05-01T01:58:34.192Z,94702.00
2023-05-01T01:59:34.552Z,94704.00
2023-05-01T02:00:34.260Z,94704.00
2023-05-01T02:01:34.307Z,94704.00
2023-05-01T02:02:34.399Z,94702.00
2023-05-01T02:03:34.474Z,94700.00
2023-05-01T02:04:34.320Z,94704.00
2023-05-01T02:05:34.392Z,94698.00
2023-05-01T02:06:34.416Z,94696.00
2023-05-01T02:07:34.441Z,94698.00
2023-05-01T02:08:34.463Z,94698.00
2023-05-01T02:09:34.462Z,94698.00
2023-05-01T02:10:34.518Z,94696.00
2023-05-01T02:11:34.504Z,94694.00
2023-05-01T02:12:34.636Z,94694.00
2023-05-01T02:13:34.599Z,94694.00
2023-05-01T02:14:34.636Z,94696.00
2023-05-01T02:15:34.666Z,94694.00
2023-05-01T02:16:34.800Z,94694.00
2023-05-01T02:17:34.758Z,94694.00
2023-05-01T02:18:34.838Z,94694.00
2023-05-01T02:19:34.806Z,94692.00
2023-05-01T02:20:34.813Z,94692.00
2023-05-01T02:21:34.888Z,94692.00
2023-05-01T02:22:34.863Z,94690.00
2023-05-01T02:23:34.898Z,94686.00
2023-05-01T02:24:34.886Z,94686.00
2023-05-01T02:25:34.985Z,94692.00
2023-05-01T02:26:35.000Z,94688.00
2023-05-01T02:27:34.997Z,94688.00
2023-05-01T02:28:35.067Z,94684.00
2023-05-01T02:29:35.111Z,94682.00
2023-05-01T02:30:35.108Z,94682.00
2023-05-01T02:31:35.203Z,94680.00
2023-05-01T02:32:35.261Z,94680.00
2023-05-01T02:33:35.196Z,94680.00
2023-05-01T02:34:35.253Z,94680.00
2023-05-01T02:35:35.307Z,94678.00
2023-05-01T02:36:35.294Z,94682.00
2023-05-01T02:37:35.332Z,94676.00
2023-05-01T02:38:35.389Z,94674.00
2023-05-01T02:39:35.406Z,94674.00
2023-05-01T02:40:35.393Z,94674.00
2023-05-01T02:41:35.452Z,94676.00
2023-05-01T02:42:35.464Z,94676.00
2023-05-01T02:43:35.501Z,94674.00
2023-05-01T02:44:35.473Z,94674.00
2023-05-01T02:45:35.620Z,94674.00
2023-05-01T02:46:35.541Z,94674.00
2023-05-01T02:47:35.661Z,94676.00
2023-05-01T02:48:35.599Z,94674.00
2023-05-01T02:49:35.657Z,94674.00
2023-05-01T02:50:35.683Z,94672.00
2023-05-01T02:51:35.785Z,94668.00
2023-05-01T02:52:35.791Z,94666.00
2023-05-01T02:53:35.813Z,94659.00
2023-05-01T02:54:35.806Z,94657.00
2023-05-01T02:55:35.860Z,94666.00
2023-05-01T02:56:36.149Z,94666.00
2023-05-01T02:57:35.892Z,94668.00
2023-05-01T02:58:35.934Z,94666.00
2023-05-01T02:59:35.938Z,94666.00
2023-05-01T03:00:36.030Z,94668.00
2023-05-01T03:01:36.123Z,94668.00
2023-05-01T03:02:36.086Z,94668.00
2023-05-01T03:03:36.085Z,94666.00
2023-05-01T03:04:36.126Z,94668.00
2023-05-01T03:05:36.087Z,94657.00
2023-05-01T03:06:36.205Z,94657.00
2023-05-01T03:07:36.177Z,94655.00
2023-05-01T03:08:36.197Z,94659.00
2023-05-01T03:09:36.225Z,94659.00
2023-05-01T03:10:36.284Z,94659.00
2023-05-01T03:11:36.220Z,94657.00
2023-05-01T03:12:36.270Z,94655.00
2023-05-01T03:13:36.288Z,94655.00
2023-05-01T03:14:36.357Z,94653.00
2023-05-01T03:15:36.361Z,94651.00
2023-05-01T03:16:36.449Z,94649.00
2023-05-01T03:17:36.509Z,94651.00
2023-05-01T03:18:36.460Z,94651.00
2023-05-01T03:19:36.496Z,94649.00
2023-05-01T03:20:36.491Z,94647.00
2023-05-01T03:21:36.805Z,94645.00
2023-05-01T03:22:36.589Z,94643.00
2023-05-01T03:23:36.621Z,94645.00
2023-05-01T03:24:36.634Z,94645.00
2023-05-01T03:25:36.613Z,94645.00
2023-05-01T03:26:36.672Z,94645.00
2023-05-01T03:27:36.710Z,94647.00
2023-05-01T03:28:36.761Z,94647.00
2023-05-01T03:29:36.759Z,94647.00
2023-05-01T03:30:36.825Z,94643.00
2023-05-01T03:31:36.871Z,94643.00
2023-05-01T03:32:36.866Z,94641.00
2023-05-01T03:33:36.883Z,94641.00
2023-05-01T03:34:36.890Z,94641.00
2023-05-01T03:35:36.937Z,94643.00
2023-05-01T03:36:36.921Z,94641.00
2023-05-01T03:37:36.984Z,94641.00
2023-05-01T03:38:36.965Z,94639.00
2023-05-01T03:39:37.012Z,94637.00
2023-05-01T03:40:37.037Z,94635.00
2023-05-01T03:41:37.057Z,94635.00
2023-05-01T03:42:37.314Z,94637.00
2023-05-01T03:43:37.133Z,94635.00
2023-05-01T03:44:37.161Z,94635.00
2023-05-01T03:45:37.165Z,94635.00
2023-05-01T03:46:37.386Z,94633.00
2023-05-01T03:47:37.308Z,94633.00
2023-05-01T03:48:37.230Z,94633.00
2023-05-01T03:49:37.304Z,94631.00
2023-05-01T03:50:37.311Z,94631.00
2023-05-01T03:51:37.383Z,94629.00
2023-05-01T03:52:37.389Z,94629.00
2023-05-01T03:53:37.404Z,94631.00
2023-05-01T03:54:37.420Z,94629.00
2023-05-01T03:55:38.310Z,94627.00
2023-05-01T03:56:37.472Z,94627.00
2023-05-01T03:57:37.468Z,94625.00
2023-05-01T03:58:37.524Z,94627.00
2023-05-01T03:59:37.557Z,94627.00
2023-05-01T04:00:37.638Z,94627.00
2023-05-01T04:01:37.632Z,94623.00
2023-05-01T04:02:37.770Z,94627.00
2023-05-01T04:03:37.921Z,94621.00
2023-05-01T04:04:37.797Z,94625.00
2023-05-01T04:05:37.817Z,94623.00
2023-05-01T04:06:37.996Z,94623.00
2023-05-01T04:07:37.897Z,94625.00
2023-05-01T04:08:37.907Z,94625.00
2023-05-01T04:09:37.943Z,94625.00
2023-05-01T04:10:37.943Z,94621.00
2023-05-01T04:11:37.971Z,94623.00
2023-05-01T04:12:38.044Z,94623.00
2023-05-01T04:13:38.039Z,94619.00
2023-05-01T04:14:38.025Z,94617.00
2023-05-01T04:15:38.138Z,94617.00
2023-05-01T04:16:38.199Z,94621.00
2023-05-01T04:17:38.178Z,94621.00
2023-05-01T04:18:38.172Z,94621.00
2023-05-01T04:19:38.232Z,94623.00
2023-05-01T04:20:38.277Z,94623.00
2023-05-01T04:21:38.278Z,94625.00
2023-05-01T04:22:38.354Z,94625.00
2023-05-01T04:23:38.418Z,94621.00
2023-05-01T04:24:38.417Z,94623.00
2023-05-01T04:25:38.480Z,94623.00
2023-05-01T04:26:38.478Z,94617.00
2023-05-01T04:27:38.555Z,94619.00
2023-05-01T04:28:38.602Z,94619.00
2023-05-01T04:29:38.664Z,94617.00
2023-05-01T04:30:38.693Z,94619.00
2023-05-01T04:31:38.761Z,94619.00
2023-05-01T04:32:38.847Z,94617.00
2023-05-01T04:33:38.781Z,94619.00
2023-05-01T04:34:38.797Z,94621.00
2023-05-01T04:35:38.821Z,94617.00
2023-05-01T04:36:38.875Z,94617.00
2023-05-01T04:37:38.927Z,94615.00
2023-05-01T04:38:38.981Z,94613.00
2023-05-01T04:39:38.974Z,94615.00
2023-05-01T04:40:39.046Z,94615.00
2023-05-01T04:41:39.070Z,94617.00
2023-05-01T04:42:39.160Z,94615.00
2023-05-01T04:43:39.165Z,94615.00
2023-05-01T04:44:39.164Z,94621.00
2023-05-01T04:45:39.216Z,94617.00
2023-05-01T04:46:39.308Z,94619.00
2023-05-01T04:47:39.391Z,94621.00
2023-05-01T04:48:39.352Z,94621.00
2023-05-01T04:49:40.326Z,94619.00
2023-05-01T04:50:39.408Z,94619.00
2023-05-01T04:51:39.474Z,94617.00
2023-05-01T04:52:39.537Z,94619.00
2023-05-01T04:53:39.536Z,94619.00
2023-05-01T04:54:39.835Z,94619.00
2023-05-01T04:55:39.886Z,94621.00
2023-05-01T04:57:58.366Z,94623.00
2023-05-01T04:58:58.381Z,94623.00
2023-05-01T04:59:58.651Z,94621.00
2023-05-01T05:00:58.322Z,94627.00
2023-05-01T05:01:58.482Z,94627.00
2023-05-01T05:02:58.405Z,94627.00
2023-05-01T05:03:58.645Z,94625.00
2023-05-01T05:04:58.279Z,94621.00
2023-05-01T05:05:58.325Z,94623.00
2023-05-01T05:06:58.278Z,94627.00
2023-05-01T05:07:58.270Z,94625.00
2023-05-01T05:08:58.272Z,94629.00
2023-05-01T05:09:58.429Z,94629.00
2023-05-01T05:10:58.397Z,94625.00
2023-05-01T05:11:58.218Z,94629.00
2023-05-01T05:12:58.251Z,94629.00
2023-05-01T05:13:58.243Z,94629.00
2023-05-01T05:14:58.217Z,94627.00
2023-05-01T05:15:58.261Z,94629.00
2023-05-01T05:16:58.482Z,94629.00
2023-05-01T05:17:58.345Z,94629.00
2023-05-01T05:18:58.195Z,94629.00
2023-05-01T05:19:58.569Z,94629.00
2023-05-01T05:20:58.191Z,94627.00
2023-05-01T05:21:58.168Z,94627.00
2023-05-01T05:22:58.173Z,94625.00
2023-05-01T05:23:58.202Z,94625.00
2023-05-01T05:24:58.182Z,94625.00
2023-05-01T05:25:58.156Z,94621.00
2023-05-01T05:26:58.174Z,94621.00
2023-05-01T05:27:58.611Z,94623.00
2023-05-01T05:28:58.170Z,94623.00
2023-05-01T05:29:58.242Z,94623.00
2023-05-01T05:30:58.128Z,94623.00
2023-05-01T05:31:58.164Z,94623.00
2023-05-01T05:32:58.093Z,94623.00
2023-05-01T05:33:58.070Z,94623.00
2023-05-01T05:34:58.101Z,94625.00
2023-05-01T05:35:58.084Z,94625.00
2023-05-01T05:36:58.060Z,94625.00
2023-05-01T05:37:58.078Z,94629.00
2023-05-01T05:38:58.066Z,94625.00
2023-05-01T05:39:58.211Z,94627.00
2023-05-01T05:40:58.073Z,94627.00
2023-05-01T05:41:58.043Z,94629.00
2023-05-01T05:42:58.040Z,94629.00
2023-05-01T05:43:58.001Z,94627.00
2023-05-01T05:44:58.000Z,94627.00
2023-05-01T05:45:58.058Z,94631.00
2023-05-01T05:46:58.127Z,94631.00
2023-05-01T05:47:58.044Z,94631.00
2023-05-01T05:48:58.014Z,94631.00
2023-05-01T05:49:58.295Z,94629.00
2023-05-01T05:50:58.044Z,94629.00
2023-05-01T05:51:58.137Z,94629.00
2023-05-01T05:52:58.159Z,94627.00
2023-05-01T05:53:58.180Z,94629.00
2023-05-01T05:54:58.229Z,94627.00
2023-05-01T05:55:58.287Z,94629.00
2023-05-01T05:56:58.281Z,94631.00
2023-05-01T05:57:58.298Z,94629.00
2023-05-01T05:58:58.348Z,94629.00
2023-05-01T05:59:58.585Z,94629.00
2023-05-01T06:00:58.429Z,94629.00
2023-05-01T06:01:58.513Z,94631.00
2023-05-01T06:02:58.620Z,94631.00
2023-05-01T06:03:58.494Z,94629.00
2023-05-01T06:04:58.598Z,94629.00
2023-05-01T06:05:58.759Z,94627.00
2023-05-01T06:06:58.628Z,94627.00
2023-05-01T06:07:59.593Z,94629.00
2023-05-01T06:08:58.696Z,94627.00
2023-05-01T06:09:58.825Z,94627.00
2023-05-01T06:10:58.836Z,94625.00
2023-05-01T06:11:58.803Z,94625.00
2023-05-01T06:13:06.327Z,94625.00
2023-05-01T06:13:59.883Z,94625.00
2023-05-01T06:14:58.828Z,94625.00
2023-05-01T06:15:58.855Z,94623.00
2023-05-01T06:16:58.824Z,94621.00
2023-05-01T06:17:58.887Z,94623.00
2023-05-01T06:18:58.785Z,94623.00
2023-05-01T06:19:58.978Z,94621.00
2023-05-01T06:20:58.780Z,94619.00
2023-05-01T06:21:58.780Z,94619.00
2023-05-01T06:22:58.788Z,94619.00
2023-05-01T06:23:58.792Z,94621.00
2023-05-01T06:24:58.852Z,94619.00
2023-05-01T06:25:58.744Z,94619.00
2023-05-01T06:27:00.201Z,94619.00
2023-05-01T06:27:58.984Z,94619.00
2023-05-01T06:28:59.031Z,94619.00
2023-05-01T06:29:59.156Z,94619.00
2023-05-01T06:30:59.092Z,94621.00
2023-05-01T06:32:00.232Z,94619.00
2023-05-01T06:32:59.212Z,94615.00
2023-05-01T06:33:59.176Z,94615.00
2023-05-01T06:34:59.196Z,94613.00
2023-05-01T06:35:59.210Z,94613.00
2023-05-01T06:36:59.217Z,94615.00
2023-05-01T06:37:59.298Z,94615.00
2023-05-01T06:38:59.340Z,94613.00
2023-05-01T06:39:59.601Z,94612.00
2023-05-01T06:40:59.404Z,94610.00
2023-05-01T06:41:59.415Z,94613.00
2023-05-01T06:42:59.479Z,94610.00
2023-05-01T06:43:59.474Z,94612.00
2023-05-01T06:44:59.534Z,94613.00
2023-05-01T06:45:59.599Z,94613.00
2023-05-01T06:46:59.616Z,94613.00
2023-05-01T06:47:59.771Z,94617.00
2023-05-01T06:48:59.675Z,94617.00
2023-05-01T06:50:00.242Z,94617.00
2023-05-01T06:50:59.734Z,94619.00
2023-05-01T06:51:59.740Z,94619.00
2023-05-01T06:52:59.804Z,94617.00
2023-05-01T06:53:59.815Z,94617.00
2023-05-01T06:54:59.865Z,94617.00
2023-05-01T06:56:00.643Z,94621.00
2023-05-01T06:56:59.934Z,94619.00
2023-05-01T06:58:02.665Z,94619.00
2023-05-01T06:59:00.963Z,94619.00
2023-05-01T07:00:00.046Z,94617.00
2023-05-01T07:01:00.004Z,94619.00
2023-05-01T07:02:00.069Z,94615.00
2023-05-01T07:03:00.090Z,94615.00
2023-05-01T07:03:59.908Z,94615.00
2023-05-01T07:04:59.945Z,94615.00
2023-05-01T07:05:59.964Z,94615.00
2023-05-01T07:06:59.880Z,94615.00
2023-05-01T07:08:01.513Z,94617.00
2023-05-01T07:08:59.913Z,94619.00
2023-05-01T07:10:00.200Z,94619.00
2023-05-01T07:10:59.880Z,94617.00
2023-05-01T07:11:59.882Z,94619.00
2023-05-01T07:12:59.943Z,94615.00
2023-05-01T07:13:59.942Z,94613.00
2023-05-01T07:14:59.982Z,94619.00
2023-05-01T07:16:00.087Z,94617.00
2023-05-01T07:17:00.186Z,94617.00
2023-05-01T07:18:00.189Z,94617.00
2023-05-01T07:19:00.130Z,94617.00
2023-05-01T07:20:00.182Z,94617.00
2023-05-01T07:21:00.237Z,94619.00
2023-05-01T07:22:00.242Z,94619.00
2023-05-01T07:23:00.324Z,94619.00
2023-05-01T07:24:00.318Z,94621.00
2023-05-01T07:25:00.367Z,94619.00
2023-05-01T07:26:00.442Z,94621.00
2023-05-01T07:27:00.446Z,94617.00
2023-05-01T07:28:00.465Z,94615.00
2023-05-01T07:29:00.494Z,94615.00
2023-05-01T07:30:00.565Z,94613.00
2023-05-01T07:31:00.567Z,94615.00
2023-05-01T07:32:00.626Z,94613.00
2023-05-01T07:33:00.599Z,94613.00
2023-05-01T07:34:00.653Z,94612.00
2023-05-01T07:35:00.701Z,94612.00
2023-05-01T07:36:00.753Z,94612.00
2023-05-01T07:37:00.759Z,94613.00
2023-05-01T07:38:00.786Z,94612.00
2023-05-01T07:39:00.840Z,94613.00
2023-05-01T07:40:00.858Z,94612.00
2023-05-01T07:41:00.894Z,94612.00
2023-05-01T07:42:00.963Z,94610.00
2023-05-01T07:43:01.019Z,94610.00
2023-05-01T07:44:01.070Z,94606.00
2023-05-01T07:45:01.087Z,94608.00
2023-05-01T07:46:01.193Z,94610.00
2023-05-01T07:47:01.098Z,94606.00
2023-05-01T07:48:01.155Z,94604.00
2023-05-01T07:49:01.233Z,94608.00
2023-05-01T07:50:01.212Z,94606.00
2023-05-01T07:51:01.275Z,94610.00
2023-05-01T07:52:01.266Z,94610.00
2023-05-01T07:53:01.344Z,94610.00
2023-05-01T07:54:01.340Z,94608.00
2023-05-01T07:55:01.469Z,94606.00
2023-05-01T07:56:01.391Z,94606.00
2023-05-01T07:57:02.127Z,94604.00
2023-05-01T07:58:01.471Z,94608.00
2023-05-01T07:59:01.468Z,94604.00
2023-05-01T08:00:01.600Z,94606.00
2023-05-01T08:01:01.602Z,94606.00
2023-05-01T08:02:01.719Z,94608.00
2023-05-01T08:03:01.760Z,94606.00
2023-05-01T08:04:01.737Z,94606.00
2023-05-01T08:05:01.761Z,94602.00
2023-05-01T08:06:01.887Z,94602.00
2023-05-01T08:07:01.781Z,94600.00
2023-05-01T08:08:01.815Z,94602.00
2023-05-01T08:09:01.798Z,94600.00
2023-05-01T08:10:02.107Z,94600.00
2023-05-01T08:11:01.929Z,94602.00
2023-05-01T08:12:01.907Z,94602.00
2023-05-01T08:13:01.929Z,94598.00
2023-05-01T08:14:01.999Z,94598.00
2023-05-01T08:15:02.061Z,94600.00
2023-05-01T08:16:02.162Z,94600.00
2023-05-01T08:17:02.035Z,94600.00
2023-05-01T08:18:02.110Z,94602.00
2023-05-01T08:19:02.141Z,94604.00
2023-05-01T08:20:02.149Z,94604.00
2023-05-01T08:21:02.227Z,94604.00
2023-05-01T08:22:02.220Z,94602.00
2023-05-01T08:23:02.259Z,94602.00
2023-05-01T08:24:02.707Z,94600.00
2023-05-01T08:25:02.283Z,94600.00
2023-05-01T08:26:02.280Z,94600.00
2023-05-01T08:27:02.332Z,94600.00
2023-05-01T08:28:02.320Z,94602.00
2023-05-01T08:29:02.398Z,94600.00
2023-05-01T08:30:02.427Z,94600.00
2023-05-01T08:31:02.447Z,94602.00
2023-05-01T08:32:02.485Z,94604.00
2023-05-01T08:33:02.509Z,94600.00
2023-05-01T08:34:02.462Z,94600.00
2023-05-01T08:35:02.551Z,94598.00
2023-05-01T08:36:02.565Z,94594.00
2023-05-01T08:37:02.557Z,94596.00
2023-05-01T08:38:02.613Z,94598.00
2023-05-01T08:39:02.681Z,94592.00
2023-05-01T08:40:02.719Z,94594.00
2023-05-01T08:41:02.682Z,94594.00
2023-05-01T08:42:02.740Z,94594.00
2023-05-01T08:43:02.753Z,94594.00
2023-05-01T08:44:02.817Z,94592.00
2023-05-01T08:45:02.848Z,94588.00
2023-05-01T08:46:02.877Z,94588.00
2023-05-01T08:47:03.110Z,94586.00
2023-05-01T08:48:02.946Z,94584.00
2023-05-01T08:49:03.012Z,94580.00
2023-05-01T08:50:02.993Z,94582.00
2023-05-01T08:51:03.002Z,94584.00
2023-05-01T08:52:03.696Z,94586.00
2023-05-01T08:53:03.077Z,94582.00
2023-05-01T08:54:03.100Z,94584.00
2023-05-01T08:55:03.097Z,94586.00
2023-05-01T08:56:03.124Z,94582.00
2023-05-01T08:57:03.153Z,94582.00
2023-05-01T08:58:03.162Z,94582.00
2023-05-01T08:59:03.225Z,94582.00
2023-05-01T09:00:03.221Z,94584.00
2023-05-01T09:01:03.247Z,94580.00
2023-05-01T09:02:03.345Z,94580.00
2023-05-01T09:03:03.454Z,94580.00
2023-05-01T09:04:03.427Z,94580.00
2023-05-01T09:05:03.405Z,94580.00
2023-05-01T09:06:03.456Z,94576.00
2023-05-01T09:07:03.499Z,94576.00
2023-05-01T09:08:03.452Z,94574.00
2023-05-01T09:09:03.495Z,94572.00
2023-05-01T09:10:03.553Z,94572.00
2023-05-01T09:11:04.159Z,94574.00
2023-05-01T09:12:03.611Z,94574.00
2023-05-01T09:13:03.545Z,94572.00
2023-05-01T09:14:03.633Z,94572.00
2023-05-01T09:15:03.629Z,94572.00
2023-05-01T09:16:03.717Z,94572.00
2023-05-01T09:17:03.702Z,94572.00
2023-05-01T09:18:04.189Z,94572.00
2023-05-01T09:19:03.783Z,94570.00
2023-05-01T09:20:03.786Z,94570.00
2023-05-01T09:21:03.821Z,94570.00
2023-05-01T09:22:03.828Z,94570.00
2023-05-01T09:23:03.842Z,94568.00
2023-05-01T09:24:03.865Z,94568.00
2023-05-01T09:25:03.902Z,94568.00
2023-05-01T09:26:04.021Z,94566.00
2023-05-01T09:27:03.952Z,94566.00
2023-05-01T09:28:03.978Z,94563.00
2023-05-01T09:29:04.044Z,94563.00
2023-05-01T09:30:04.046Z,94561.00
2023-05-01T09:31:04.056Z,94557.00
2023-05-01T09:32:04.159Z,94559.00
2023-05-01T09:33:04.150Z,94559.00
2023-05-01T09:34:04.175Z,94557.00
2023-05-01T09:35:04.181Z,94557.00
2023-05-01T09:36:04.198Z,94555.00
2023-05-01T09:37:04.244Z,94553.00
2023-05-01T09:38:04.234Z,94551.00
2023-05-01T09:39:04.324Z,94549.00
2023-05-01T09:40:04.298Z,94545.00
2023-05-01T09:41:04.421Z,94543.00
2023-05-01T09:42:04.341Z,94543.00
2023-05-01T09:43:04.340Z,94541.00
2023-05-01T09:44:04.383Z,94543.00
2023-05-01T09:45:04.432Z,94543.00
2023-05-01T09:46:04.512Z,94543.00
2023-05-01T09:47:04.447Z,94543.00
2023-05-01T09:48:04.627Z,94543.00
2023-05-01T09:49:04.516Z,94541.00
2023-05-01T09:50:04.541Z,94537.00
2023-05-01T09:51:04.606Z,94539.00
2023-05-01T09:52:04.612Z,94537.00
2023-05-01T09:53:04.674Z,94541.00
2023-05-01T09:54:04.657Z,94541.00
2023-05-01T09:55:04.671Z,94535.00
2023-05-01T09:56:04.757Z,94537.00
2023-05-01T09:57:04.775Z,94533.00
2023-05-01T09:58:04.838Z,94533.00
2023-05-01T09:59:04.815Z,94533.00
2023-05-01T10:00:04.870Z,94529.00
2023-05-01T10:01:04.879Z,94529.00
2023-05-01T10:02:04.920Z,94523.00
2023-05-01T10:03:06.436Z,94523.00
2023-05-01T10:04:04.954Z,94525.00
2023-05-01T10:05:04.955Z,94523.00
2023-05-01T10:06:04.995Z,94521.00
2023-05-01T10:07:05.064Z,94521.00
2023-05-01T10:08:05.055Z,94519.00
2023-05-01T10:09:05.048Z,94519.00
2023-05-01T10:10:05.173Z,94519.00
2023-05-01T10:11:05.165Z,94514.00
2023-05-01T10:12:05.163Z,94514.00
2023-05-01T10:13:05.170Z,94516.00
2023-05-01T10:14:05.132Z,94512.00
2023-05-01T10:15:17.409Z,94516.00
2023-05-01T10:16:06.256Z,94514.00
2023-05-01T10:17:05.206Z,94512.00
2023-05-01T10:18:05.243Z,94512.00
2023-05-01T10:19:05.166Z,94510.00
2023-05-01T10:20:05.150Z,94508.00
2023-05-01T10:21:05.163Z,94508.00
2023-05-01T10:22:05.135Z,94506.00
2023-05-01T10:23:05.136Z,94506.00
2023-05-01T10:24:05.135Z,94502.00
2023-05-01T10:25:05.152Z,94502.00
2023-05-01T10:26:05.293Z,94502.00
2023-05-01T10:27:05.131Z,94504.00
2023-05-01T10:28:05.127Z,94502.00
2023-05-01T10:29:05.073Z,94504.00
2023-05-01T10:30:05.098Z,94504.00
2023-05-01T10:31:05.109Z,94504.00
2023-05-01T10:32:05.096Z,94504.00
2023-05-01T10:33:05.120Z,94502.00
2023-05-01T10:34:05.175Z,94502.00
2023-05-01T10:35:05.143Z,94500.00
2023-05-01T10:36:05.206Z,94498.00
2023-05-01T10:37:05.229Z,94498.00
2023-05-01T10:38:05.323Z,94494.00
2023-05-01T10:39:05.284Z,94494.00
2023-05-01T10:40:05.317Z,94494.00
2023-05-01T10:41:05.357Z,94494.00
2023-05-01T10:42:05.474Z,94490.00
2023-05-01T10:43:05.403Z,94486.00
2023-05-01T10:44:05.460Z,94488.00
2023-05-01T10:45:05.476Z,94490.00
2023-05-01T10:46:05.537Z,94490.00
2023-05-01T10:47:05.505Z,94488.00
2023-05-01T10:48:05.637Z,94486.00
2023-05-01T10:49:05.515Z,94484.00
2023-05-01T10:50:05.612Z,94478.00
2023-05-01T10:51:05.718Z,94482.00
2023-05-01T10:52:05.671Z,94482.00
2023-05-01T10:53:05.641Z,94480.00
2023-05-01T10:54:05.739Z,94478.00
2023-05-01T10:55:06.200Z,94478.00
2023-05-01T10:56:05.913Z,94478.00
2023-05-01T10:57:05.816Z,94476.00
2023-05-01T10:58:05.846Z,94476.00
2023-05-01T10:59:05.935Z,94474.00
2023-05-01T11:00:05.861Z,94471.00
2023-05-01T11:01:05.912Z,94471.00
2023-05-01T11:02:05.966Z,94465.00
2023-05-01T11:03:05.968Z,94465.00
2023-05-01T11:04:05.999Z,94463.00
2023-05-01T11:05:06.073Z,94461.00
2023-05-01T11:06:06.245Z,94461.00
2023-05-01T11:07:06.155Z,94461.00
2023-05-01T11:08:06.065Z,94461.00
2023-05-01T11:09:06.126Z,94463.00
2023-05-01T11:10:06.181Z,94461.00
2023-05-01T11:11:06.163Z,94459.00
2023-05-01T11:12:06.202Z,94455.00
2023-05-01T11:13:06.170Z,94453.00
2023-05-01T11:14:06.285Z,94449.00
2023-05-01T11:15:06.305Z,94449.00
2023-05-01T11:16:06.353Z,94449.00
2023-05-01T11:17:06.334Z,94451.00
2023-05-01T11:18:06.510Z,94451.00
2023-05-01T11:19:06.406Z,94453.00
2023-05-01T11:20:06.425Z,94451.00
2023-05-01T11:21:06.454Z,94453.00
2023-05-01T11:22:06.468Z,94451.00
2023-05-01T11:23:06.464Z,94449.00
2023-05-01T11:24:06.538Z,94447.00
2023-05-01T11:25:06.542Z,94447.00
2023-05-01T11:26:06.587Z,94445.00
2023-05-01T11:27:06.610Z,94447.00
2023-05-01T11:28:06.846Z,94445.00
2023-05-01T11:29:06.668Z,94445.00
2023-05-01T11:30:06.691Z,94443.00
2023-05-01T11:31:06.711Z,94439.00
2023-05-01T11:32:06.777Z,94439.00
2023-05-01T11:33:09.826Z,94441.00
2023-05-01T11:34:06.736Z,94437.00
2023-05-01T11:35:06.745Z,94435.00
2023-05-01T11:36:06.803Z,94435.00
2023-05-01T11:37:06.737Z,94433.00
2023-05-01T11:38:06.716Z,94437.00
2023-05-01T11:39:06.750Z,94435.00
2023-05-01T11:40:06.702Z,94433.00
2023-05-01T11:41:06.753Z,94431.00
2023-05-01T11:42:06.760Z,94431.00
2023-05-01T11:43:06.687Z,94431.00
2023-05-01T11:44:06.727Z,94427.00
2023-05-01T11:45:06.661Z,94429.00
2023-05-01T11:46:06.709Z,94425.00